Caneadea, New York
Current Conditions -  °F | °C
As of 7:55 PM on Saturday 22 Nov 2014 (Local Time) from KOLE Reporting Station
Light Rain Light Rain  
Wind Chill: 28°   Ceiling: 400
Heat Index: 36°   Visibility: 2.5mi
Dew Point: 36°   Wind: 12mph
Humidity: 100%   Direction: 220°SW
Pressure: 30.02"   Gusts: 21mph
Location:  42.39°N, 78.15°W
Report Text: KOLE 230055Z AUTO 22010G18KT 2 1/2SM -RA BKN004 BKN013 OVC049 02/02 A3002 RMK AO2
Loading
Personal Weather Stations






























Interactive Weather Map New forecast layout! Learn more

10-Day Weather Forecast

Advertisements
Track Severe Weather on mobile